KDVTKSEZ

Guest
Details From KDVT - PHOENIX DEER VALLEY
To KSEZ - Sedona
Flight Number -
Tags decoded
Created
Modified
Stats Distance 78 nm / 145 km
Max Altitude 0 ft / 0 m
Waypoints 7
Social Downloads 1
Likes 0
Share VATSIM

Download

Looking for another format? Having issues loading an existing format? Contact us
Advertisement - Login to hide

Notes

Requested: KDVT KNOBB V327 MINGY KSEZ

Route

KDVT KNOBB V327 MINGY KSEZ

ID Type Via Altitude Latitude Longitude Leg Dist Tot Dist Heading (true) Name
O KDVT APT - 0 ft / 0 m 33.68860˚ -112.08244˚ - 0 nm - PHOENIX DEER VALLEY
KNOBB FIX - 0 ft / 0 m 33.69866˚ -111.90934˚ 8 nm 8 nm 86° / 86° -
RADOM FIX V327 (AWY-LO) 0 ft / 0 m 33.99747˚ -111.84042˚ 18 nm 26 nm 11° / 11° -
ZCARR FIX V327 (AWY-LO) 0 ft / 0 m 34.07250˚ -111.82304˚ 4 nm 31 nm 11° / 11° -
FERER FIX V327 (AWY-LO) 0 ft / 0 m 34.19790˚ -111.79392˚ 7 nm 39 nm 11° / 11° -
MINGY FIX V327 (AWY-LO) 0 ft / 0 m 34.54946˚ -111.74984˚ 21 nm 60 nm 6° / 6° -
O KSEZ APT - 0 ft / 0 m 34.84861˚ -111.78848˚ 18 nm 78 nm 354° / 354° Sedona

Altitude Profile

Advertisement - Login to hide

KDVT

Details ICAO KDVT (DVT)
Name PHOENIX DEER VALLEY
Region United States
Timezone America/Phoenix (UTC-7.0)
Stats Elevation 1,478 ft / 450 m (AMSL)
Location 33.688604° -112.082441°
Runways 2
Magnetic Variation 10.375° E

METAR

KDVT 181753Z VRB04KT 10SM CLR 14/04 A3014 RMK AO2 SLP198 T01390039 10139 20067 51011

Decode

TAF

Not found

Departure Runways

ID Width Length Bearing (true) Bearing (mag) Surface Threshold Offset Overrun Length
07L 75 ft / 23 m 4,491 ft / 1,369 m 86.00° 75.62° Asphalt 0 ft / 0 m 0 ft / 0 m
07R 100 ft / 30 m 8,192 ft / 2,497 m 85.98° 75.60° Asphalt 897 ft / 273 m 154 ft / 47 m
25L 100 ft / 30 m 8,192 ft / 2,497 m 266.00° 255.62° Asphalt 930 ft / 283 m 140 ft / 43 m
25R 75 ft / 23 m 4,491 ft / 1,369 m 266.01° 255.63° Asphalt 0 ft / 0 m 0 ft / 0 m

KSEZ

Details ICAO KSEZ (SDX)
Name Sedona
Region United States
Timezone America/Phoenix (UTC-7.0)
Stats Elevation 4,827 ft / 1,471 m (AMSL)
Location 34.848607° -111.788482°
Runways 1
Magnetic Variation 10.458° E

METAR

KSEZ 181835Z AUTO 00000KT 10SM CLR 09/M09 A3017 RMK AO2

Decode

TAF

TAF KSEZ 181723Z 1818/1918 VRB06KT P6SM SKC FM190300 04010KT P6SM FEW250 FM191600 VRB03KT P6SM FEW250

Decode

Destination Runways

ID Width Length Bearing (true) Bearing (mag) Surface Threshold Offset Overrun Length
03 100 ft / 30 m 5,130 ft / 1,564 m 45.63° 35.17° Asphalt 0 ft / 0 m 0 ft / 0 m
21 100 ft / 30 m 5,130 ft / 1,564 m 225.64° 215.18° Asphalt 0 ft / 0 m 0 ft / 0 m